Time;durP1;ratioP1;P1;durP2;ratioP2;P2;SDS_P1;SDS_P2;PMS_P1;PMS_P2;Temp;Humidity;BMP_temperature;BMP_pressure;BME280_temperature;BME280_humidity;BME280_pressure;Samples;Min_cycle;Max_cycle;Signal;HPM_P1;HPM_P2
2021/06/16 00:02:17;;;;;;;16.33;8.02;;;8.20;99.90;;;;;;5081637;28;20043;-77
2021/06/16 00:04:43;;;;;;;15.73;7.93;;;8.20;99.90;;;;;;5071875;28;20487;-77
2021/06/16 00:07:08;;;;;;;13.60;9.82;;;8.20;99.90;;;;;;5071916;28;20043;-77
2021/06/16 00:09:34;;;;;;;15.73;9.00;;;8.20;99.90;;;;;;5070670;28;20029;-77
2021/06/16 00:12:00;;;;;;;17.00;9.10;;;8.10;99.90;;;;;;5075892;28;20040;-77
2021/06/16 00:14:25;;;;;;;14.27;7.25;;;8.10;99.90;;;;;;5090572;28;20016;-77
2021/06/16 00:16:51;;;;;;;10.45;7.68;;;8.00;99.90;;;;;;5090662;28;20125;-77
2021/06/16 00:19:17;;;;;;;11.57;7.82;;;8.00;99.90;;;;;;5092052;28;20024;-77
2021/06/16 00:21:42;;;;;;;16.42;8.82;;;7.90;99.90;;;;;;5091449;28;20472;-77
2021/06/16 00:24:08;;;;;;;11.88;8.25;;;7.80;99.90;;;;;;5071367;28;20027;-77
2021/06/16 00:26:34;;;;;;;18.05;7.05;;;7.80;99.90;;;;;;5071779;28;20028;-77
2021/06/16 00:29:00;;;;;;;13.70;8.10;;;7.80;99.90;;;;;;5071776;28;20025;-77
2021/06/16 00:31:27;;;;;;;16.30;7.45;;;7.70;99.90;;;;;;5071553;28;20024;-77
2021/06/16 00:33:52;;;;;;;13.43;8.80;;;7.70;99.90;;;;;;5071715;28;20025;-77
2021/06/16 00:36:18;;;;;;;10.73;7.70;;;7.70;99.90;;;;;;5071603;28;20537;-77
2021/06/16 00:38:43;;;;;;;9.30;7.75;;;7.60;99.90;;;;;;5071621;28;20376;-77
2021/06/16 00:41:09;;;;;;;11.93;7.50;;;7.60;99.90;;;;;;5070322;28;20020;-77
2021/06/16 00:43:34;;;;;;;14.57;9.07;;;7.60;99.90;;;;;;5080053;28;20024;-77
2021/06/16 00:46:00;;;;;;;17.85;8.63;;;7.60;99.90;;;;;;5091542;28;20032;-77
2021/06/16 00:48:25;;;;;;;11.52;8.07;;;7.50;99.90;;;;;;5090489;28;20032;-77
2021/06/16 00:50:51;;;;;;;12.68;8.25;;;7.50;99.90;;;;;;5091479;28;20024;-77
2021/06/16 00:53:17;;;;;;;16.02;8.70;;;7.50;99.90;;;;;;5086961;28;20106;-77
2021/06/16 00:55:43;;;;;;;14.52;8.10;;;7.50;99.90;;;;;;5070030;28;20047;-77
2021/06/16 00:58:11;;;;;;;18.15;11.27;;;7.40;99.90;;;;;;5089928;28;20020;-77
2021/06/16 01:00:59;;;;;;;24.15;15.30;;;7.40;99.90;;;;;;5091585;28;20031;-77
2021/06/16 01:03:41;;;;;;;18.15;12.68;;;7.40;99.90;;;;;;5090243;28;20028;-77
2021/06/16 01:06:25;;;;;;;18.70;12.00;;;7.40;99.90;;;;;;5089955;28;20035;-77
2021/06/16 01:09:22;;;;;;;17.92;9.75;;;7.30;99.90;;;;;;5087181;28;20082;-77
2021/06/16 01:12:01;;;;;;;14.00;8.00;;;7.30;99.90;;;;;;5071074;28;20123;-77
2021/06/16 01:14:48;;;;;;;11.90;7.65;;;7.30;99.90;;;;;;5069706;28;20035;-77
2021/06/16 01:17:19;;;;;;;10.77;6.68;;;7.30;99.90;;;;;;5077373;28;20020;-77
2021/06/16 01:19:50;;;;;;;11.73;6.72;;;7.30;99.90;;;;;;5091632;28;20024;-77
2021/06/16 01:22:55;;;;;;;9.27;7.25;;;7.20;99.90;;;;;;5091450;28;20472;-77
2021/06/16 01:25:48;;;;;;;15.63;6.65;;;7.20;99.90;;;;;;5089928;28;20594;-77
2021/06/16 01:28:16;;;;;;;15.50;6.45;;;7.10;99.90;;;;;;5079397;28;20028;-77
2021/06/16 01:30:43;;;;;;;10.73;6.28;;;7.10;99.90;;;;;;5069732;28;20054;-77
2021/06/16 01:33:11;;;;;;;17.00;8.07;;;7.10;99.90;;;;;;5069821;28;20070;-77
2021/06/16 01:35:39;;;;;;;13.55;8.70;;;7.10;99.90;;;;;;5072775;28;20017;-77
2021/06/16 01:38:07;;;;;;;14.68;8.00;;;7.10;99.90;;;;;;5081988;28;20027;-77
2021/06/16 01:40:34;;;;;;;18.70;8.05;;;7.10;99.90;;;;;;5094779;28;20024;-77
2021/06/16 01:43:01;;;;;;;14.75;8.20;;;7.10;99.90;;;;;;5093530;28;20402;-77
2021/06/16 01:45:31;;;;;;;18.40;8.05;;;7.10;99.90;;;;;;5094442;28;20392;-77
2021/06/16 01:47:59;;;;;;;16.80;7.55;;;7.20;99.90;;;;;;5090941;28;20073;-77
2021/06/16 01:50:26;;;;;;;19.40;8.43;;;7.10;99.90;;;;;;5075299;28;20032;-77
2021/06/16 01:52:54;;;;;;;14.00;8.05;;;7.10;99.90;;;;;;5073034;28;20077;-77
2021/06/16 01:55:21;;;;;;;13.57;8.15;;;7.10;99.90;;;;;;5072839;28;20021;-77
2021/06/16 01:57:49;;;;;;;18.58;9.20;;;7.10;99.90;;;;;;5074274;28;20490;-77
2021/06/16 02:00:16;;;;;;;12.45;8.52;;;7.00;99.90;;;;;;5073044;28;20115;-77
2021/06/16 02:02:42;;;;;;;17.20;8.40;;;7.00;99.90;;;;;;5072819;28;20034;-76
2021/06/16 02:05:09;;;;;;;22.25;8.52;;;7.00;99.90;;;;;;5073937;28;20028;-77
2021/06/16 02:07:46;;;;;;;12.95;8.15;;;6.90;99.90;;;;;;5074103;28;20053;-77
2021/06/16 02:10:15;;;;;;;12.13;8.35;;;6.90;99.90;;;;;;5088791;28;20495;-77
2021/06/16 02:12:44;;;;;;;13.25;7.75;;;6.80;99.90;;;;;;5092677;28;20067;-77
2021/06/16 02:15:15;;;;;;;14.57;8.60;;;6.70;99.90;;;;;;5093885;28;20095;-77
2021/06/16 02:17:49;;;;;;;13.73;8.45;;;6.70;99.90;;;;;;5092935;28;20016;-77
2021/06/16 02:20:21;;;;;;;13.10;8.50;;;6.70;99.90;;;;;;5079849;28;20017;-77
2021/06/16 02:22:48;;;;;;;12.95;8.82;;;6.70;99.90;;;;;;5073692;28;20036;-77
2021/06/16 02:25:15;;;;;;;18.15;10.10;;;6.70;99.90;;;;;;5073507;28;20103;-77
2021/06/16 02:27:41;;;;;;;19.77;9.68;;;6.70;99.90;;;;;;5073631;28;20103;-77
2021/06/16 02:30:07;;;;;;;13.80;9.07;;;6.70;99.90;;;;;;5083316;28;20568;-76
2021/06/16 02:32:33;;;;;;;15.98;9.48;;;6.80;99.90;;;;;;5092183;28;20519;-77
2021/06/16 02:34:59;;;;;;;16.52;9.10;;;6.80;99.90;;;;;;5093638;28;20038;-77
2021/06/16 02:37:27;;;;;;;14.43;9.70;;;6.80;99.90;;;;;;5093646;28;20490;-77
2021/06/16 02:39:57;;;;;;;16.85;9.30;;;6.80;99.90;;;;;;5087210;28;20025;-77
2021/06/16 02:42:23;;;;;;;13.15;9.40;;;6.80;99.90;;;;;;5071637;28;20116;-77
2021/06/16 02:44:50;;;;;;;19.58;10.35;;;6.80;99.90;;;;;;5073130;28;20095;-77
2021/06/16 02:47:17;;;;;;;17.73;11.13;;;6.80;99.90;;;;;;5073225;28;20051;-77
2021/06/16 02:49:53;;;;;;;16.75;11.45;;;6.80;99.90;;;;;;5073579;28;20024;-77
2021/06/16 02:52:21;;;;;;;19.70;12.10;;;6.80;99.90;;;;;;5092089;28;20055;-77
2021/06/16 02:54:53;;;;;;;19.08;10.70;;;6.90;99.90;;;;;;5093234;28;20012;-77
2021/06/16 02:57:21;;;;;;;27.67;13.02;;;6.90;99.90;;;;;;5093367;28;20016;-77
2021/06/16 02:59:48;;;;;;;23.05;14.32;;;6.90;99.90;;;;;;5093274;28;20020;-77
2021/06/16 03:02:21;;;;;;;20.52;11.77;;;6.80;99.90;;;;;;5084042;28;20035;-77
2021/06/16 03:04:48;;;;;;;15.13;11.27;;;6.80;99.90;;;;;;5091846;28;20028;-77
2021/06/16 03:07:15;;;;;;;18.63;12.60;;;6.80;99.90;;;;;;5093230;28;20023;-77
2021/06/16 03:09:46;;;;;;;14.43;12.32;;;6.80;99.90;;;;;;5091689;28;20391;-77
2021/06/16 03:12:14;;;;;;;20.20;11.60;;;6.80;99.90;;;;;;5077850;28;20528;-77
2021/06/16 03:14:40;;;;;;;15.75;11.05;;;6.80;99.90;;;;;;5071259;28;20029;-77
2021/06/16 03:17:06;;;;;;;19.92;11.73;;;6.80;99.90;;;;;;5072614;28;20039;-77
2021/06/16 03:19:34;;;;;;;21.02;12.65;;;6.80;99.90;;;;;;5072713;28;20025;-77
2021/06/16 03:22:03;;;;;;;21.90;14.00;;;6.80;99.90;;;;;;5081377;28;20032;-77
2021/06/16 03:24:30;;;;;;;18.05;13.85;;;6.80;99.90;;;;;;5091370;28;20031;-77
2021/06/16 03:26:56;;;;;;;19.05;13.07;;;6.80;99.90;;;;;;5092729;28;20100;-77
2021/06/16 03:29:23;;;;;;;22.25;14.45;;;6.80;99.90;;;;;;5092859;28;20020;-77
2021/06/16 03:31:51;;;;;;;17.52;13.10;;;6.80;99.90;;;;;;5086325;28;20056;-77
2021/06/16 03:34:17;;;;;;;18.95;12.18;;;6.80;99.90;;;;;;5070984;28;20074;-77
2021/06/16 03:36:45;;;;;;;18.50;12.75;;;6.80;99.90;;;;;;5072496;28;20023;-77
2021/06/16 03:39:13;;;;;;;17.48;14.13;;;6.80;99.90;;;;;;5072359;28;20020;-77
2021/06/16 03:41:40;;;;;;;15.15;12.57;;;6.80;99.90;;;;;;5072316;28;20021;-77
2021/06/16 03:44:06;;;;;;;20.33;12.85;;;6.80;99.90;;;;;;5091014;28;20020;-77
2021/06/16 03:46:36;;;;;;;15.73;11.95;;;6.80;99.90;;;;;;5092462;28;20024;-77
2021/06/16 03:49:04;;;;;;;17.42;12.68;;;6.90;99.90;;;;;;5091162;28;20020;-77
2021/06/16 03:51:33;;;;;;;15.90;11.60;;;7.00;99.90;;;;;;5090786;28;20024;-77
2021/06/16 03:53:59;;;;;;;20.90;11.85;;;7.00;99.90;;;;;;5074167;28;20656;-77
2021/06/16 03:56:25;;;;;;;24.38;13.55;;;7.00;99.90;;;;;;5072089;28;20039;-77
2021/06/16 03:58:52;;;;;;;18.00;13.63;;;7.10;99.90;;;;;;5071485;28;20393;-77
2021/06/16 04:01:18;;;;;;;22.70;15.20;;;7.20;99.90;;;;;;5072036;28;20437;-77
2021/06/16 04:03:44;;;;;;;20.58;16.20;;;7.20;99.90;;;;;;5084574;28;20103;-77
2021/06/16 04:06:13;;;;;;;27.50;17.05;;;7.40;99.90;;;;;;5091030;28;20070;-77
2021/06/16 04:08:40;;;;;;;28.88;15.65;;;7.50;99.90;;;;;;5090891;28;20024;-77
2021/06/16 04:11:05;;;;;;;20.70;15.40;;;7.60;99.90;;;;;;5090625;28;20024;-77
2021/06/16 04:13:31;;;;;;;17.65;13.90;;;7.70;99.90;;;;;;5083451;28;20032;-77
2021/06/16 04:15:57;;;;;;;21.33;15.45;;;7.80;99.90;;;;;;5071715;28;20554;-77
2021/06/16 04:18:23;;;;;;;28.58;19.38;;;7.90;99.90;;;;;;5071957;28;20098;-77
2021/06/16 04:20:48;;;;;;;24.73;16.25;;;8.10;99.90;;;;;;5071985;28;20013;-77
2021/06/16 04:23:15;;;;;;;30.30;18.95;;;8.20;99.90;;;;;;5074661;28;20102;-77
2021/06/16 04:25:40;;;;;;;29.70;18.92;;;8.30;99.90;;;;;;5091779;28;20388;-77
2021/06/16 04:28:06;;;;;;;26.23;18.27;;;8.40;99.90;;;;;;5091870;28;20070;-77
2021/06/16 04:30:31;;;;;;;27.17;19.27;;;8.60;99.90;;;;;;5091924;28;20556;-77
2021/06/16 04:32:57;;;;;;;25.88;17.42;;;8.70;99.90;;;;;;5090625;28;20066;-77
2021/06/16 04:35:23;;;;;;;32.10;19.65;;;8.80;99.90;;;;;;5072285;28;20028;-77
2021/06/16 04:37:49;;;;;;;36.13;22.25;;;8.90;99.90;;;;;;5071710;28;20017;-77
2021/06/16 04:40:15;;;;;;;39.67;22.00;;;9.10;99.90;;;;;;5071556;28;20017;-77
2021/06/16 04:42:41;;;;;;;38.15;21.50;;;9.20;99.90;;;;;;5071603;28;20115;-77
2021/06/16 04:45:07;;;;;;;39.35;22.20;;;9.40;99.90;;;;;;5087221;28;20052;-77
2021/06/16 04:47:33;;;;;;;45.20;22.35;;;9.60;99.90;;;;;;5070374;28;20024;-77
2021/06/16 04:49:59;;;;;;;57.95;24.35;;;9.80;99.90;;;;;;5070248;28;20028;-77
2021/06/16 04:52:25;;;;;;;55.92;25.70;;;10.00;99.90;;;;;;5071475;28;20055;-77
2021/06/16 04:54:51;;;;;;;44.53;23.83;;;10.30;99.90;;;;;;5078764;28;20484;-77
2021/06/16 04:57:16;;;;;;;53.92;26.15;;;10.40;99.90;;;;;;5074697;28;20594;-76
2021/06/16 04:59:42;;;;;;;48.90;24.08;;;10.60;99.90;;;;;;5086167;28;20024;-76
2021/06/16 05:02:08;;;;;;;65.00;29.17;;;10.80;99.90;;;;;;5086186;28;20706;-77
2021/06/16 05:04:34;;;;;;;51.55;30.42;;;10.90;99.90;;;;;;5084584;28;20074;-76
2021/06/16 05:06:59;;;;;;;45.63;25.85;;;11.20;99.90;;;;;;5087205;28;20040;-77
2021/06/16 05:09:25;;;;;;;51.90;29.38;;;11.30;99.90;;;;;;5086659;28;20032;-77
2021/06/16 05:11:50;;;;;;;39.70;21.48;;;11.40;99.90;;;;;;5091082;28;20502;-77
2021/06/16 05:14:17;;;;;;;40.08;22.65;;;11.60;99.90;;;;;;5089355;28;20026;-78
2021/06/16 05:16:43;;;;;;;42.17;24.88;;;11.70;99.90;;;;;;5090227;28;20092;-77
2021/06/16 05:19:26;;;;;;;45.63;26.63;;;11.90;99.90;;;;;;5090465;28;20429;-78
2021/06/16 05:21:52;;;;;;;57.08;33.40;;;12.00;99.90;;;;;;5082154;28;20020;-77
2021/06/16 05:24:19;;;;;;;38.70;23.65;;;12.20;99.90;;;;;;5089083;28;20059;-77
2021/06/16 05:26:45;;;;;;;49.08;21.77;;;12.40;99.90;;;;;;5090388;28;20028;-77
2021/06/16 05:29:11;;;;;;;45.55;28.13;;;12.50;99.90;;;;;;5090618;28;20024;-77
2021/06/16 05:31:37;;;;;;;34.70;23.92;;;12.70;99.90;;;;;;5089297;28;20021;-78
2021/06/16 05:34:04;;;;;;;45.65;25.80;;;12.80;99.90;;;;;;5097823;28;20086;-77
2021/06/16 05:36:31;;;;;;;43.45;24.08;;;12.90;99.90;;;;;;5090407;28;20023;-78
2021/06/16 05:38:57;;;;;;;38.10;19.63;;;13.00;99.90;;;;;;5089888;28;20020;-77
2021/06/16 05:41:23;;;;;;;49.67;21.10;;;13.00;99.90;;;;;;5089934;28;20035;-77
2021/06/16 05:43:48;;;;;;;47.20;28.10;;;13.10;99.90;;;;;;5089706;28;20035;-76
2021/06/16 05:46:14;;;;;;;23.17;13.50;;;13.30;99.90;;;;;;5088784;28;20053;-78
2021/06/16 05:48:40;;;;;;;38.55;25.10;;;13.30;99.90;;;;;;5085407;28;20050;-78
2021/06/16 05:51:05;;;;;;;31.80;19.58;;;13.60;99.90;;;;;;5088670;28;20020;-78
2021/06/16 05:53:31;;;;;;;30.98;18.25;;;13.70;99.90;;;;;;5088465;28;20030;-78
2021/06/16 05:55:57;;;;;;;20.95;9.80;;;13.90;99.90;;;;;;5089881;28;20034;-77
2021/06/16 05:58:22;;;;;;;18.85;9.57;;;14.00;99.90;;;;;;5091583;28;20024;-77
2021/06/16 06:00:48;;;;;;;26.45;6.07;;;14.10;99.90;;;;;;5092969;28;20392;-75
2021/06/16 06:03:14;;;;;;;22.33;6.93;;;14.30;99.90;;;;;;5093031;28;20036;-75
2021/06/16 06:05:40;;;;;;;22.15;6.35;;;14.30;99.90;;;;;;5092732;28;20031;-76
2021/06/16 06:08:07;;;;;;;17.45;5.68;;;14.40;99.90;;;;;;5081084;28;20396;-76
2021/06/16 06:10:33;;;;;;;30.55;5.97;;;14.60;99.90;;;;;;5073638;28;20055;-76
2021/06/16 06:12:58;;;;;;;23.17;5.43;;;14.80;99.90;;;;;;5073931;28;20060;-76
2021/06/16 06:15:24;;;;;;;17.65;4.30;;;15.00;99.90;;;;;;5073681;28;20082;-76
2021/06/16 06:17:50;;;;;;;16.80;5.00;;;15.20;99.90;;;;;;5081324;28;20056;-76
2021/06/16 06:20:17;;;;;;;12.13;3.72;;;15.40;99.90;;;;;;5093550;28;20039;-77
2021/06/16 06:22:42;;;;;;;13.30;4.07;;;15.60;99.90;;;;;;5093980;28;20024;-76
2021/06/16 06:25:10;;;;;;;11.07;3.35;;;15.60;99.90;;;;;;5093623;28;20503;-76
2021/06/16 06:27:36;;;;;;;25.55;3.88;;;15.80;99.90;;;;;;5090710;28;20036;-75
2021/06/16 06:30:03;;;;;;;16.35;4.18;;;15.90;99.90;;;;;;5072360;28;20500;-77
2021/06/16 06:32:29;;;;;;;17.40;3.15;;;16.00;99.90;;;;;;5073389;28;20036;-77
2021/06/16 06:34:55;;;;;;;9.30;2.97;;;16.10;99.90;;;;;;5073337;28;20119;-77
2021/06/16 06:37:20;;;;;;;21.08;3.92;;;16.20;99.90;;;;;;5073585;28;20028;-76
2021/06/16 06:39:49;;;;;;;14.95;3.50;;;16.30;99.90;;;;;;5091120;28;20092;-77
2021/06/16 06:42:15;;;;;;;10.15;3.22;;;16.50;99.90;;;;;;5093718;28;20061;-77
2021/06/16 06:44:41;;;;;;;24.88;3.40;;;16.50;99.90;;;;;;5093378;28;20095;-77
2021/06/16 06:47:07;;;;;;;10.30;2.60;;;16.60;99.90;;;;;;5093490;28;20449;-77
2021/06/16 06:49:32;;;;;;;14.30;3.67;;;16.70;99.90;;;;;;5080047;28;20496;-77
2021/06/16 06:51:58;;;;;;;22.80;3.38;;;17.00;99.90;;;;;;5071632;28;20040;-77
2021/06/16 06:54:23;;;;;;;12.63;2.70;;;17.20;99.90;;;;;;5072972;28;20104;-77
2021/06/16 06:56:49;;;;;;;10.63;2.50;;;17.30;99.90;;;;;;5073039;28;20028;-76
2021/06/16 06:59:14;;;;;;;10.85;2.88;;;17.40;99.90;;;;;;5073799;28;20094;-76
2021/06/16 07:01:40;;;;;;;10.40;2.88;;;17.60;99.90;;;;;;5083771;28;20028;-77
2021/06/16 07:04:06;;;;;;;9.10;2.75;;;17.70;99.90;;;;;;5079034;28;20048;-77
2021/06/16 07:06:32;;;;;;;11.00;2.70;;;17.90;99.90;;;;;;5087657;28;20051;-77
2021/06/16 07:08:58;;;;;;;8.00;2.10;;;18.00;99.90;;;;;;5088824;28;20648;-77
2021/06/16 07:11:24;;;;;;;14.27;2.85;;;18.20;99.90;;;;;;5089215;28;20028;-78
2021/06/16 07:13:50;;;;;;;12.88;2.53;;;18.20;99.90;;;;;;5090516;28;20021;-78
2021/06/16 07:16:15;;;;;;;11.38;2.35;;;18.40;99.90;;;;;;5088673;28;20024;-78
2021/06/16 07:18:41;;;;;;;6.78;1.95;;;18.60;99.90;;;;;;5088496;28;20420;-78
2021/06/16 07:21:07;;;;;;;13.43;3.38;;;18.90;99.90;;;;;;5087340;28;20089;-78
2021/06/16 07:23:33;;;;;;;9.27;2.50;;;19.10;99.90;;;;;;5088454;28;20460;-78
2021/06/16 07:25:59;;;;;;;11.68;2.50;;;19.20;99.90;;;;;;5088050;28;20534;-78
2021/06/16 07:28:24;;;;;;;8.70;2.00;;;19.30;99.90;;;;;;5088429;28;20028;-78
2021/06/16 07:30:50;;;;;;;13.40;2.30;;;19.40;99.90;;;;;;5088050;28;20047;-77
2021/06/16 07:33:16;;;;;;;12.68;2.85;;;19.40;99.90;;;;;;5085462;28;20097;-77
2021/06/16 07:35:43;;;;;;;9.23;2.53;;;19.60;99.90;;;;;;5088096;28;20055;-77
2021/06/16 07:38:09;;;;;;;18.30;2.90;;;19.60;99.90;;;;;;5086878;28;20024;-77
2021/06/16 07:40:34;;;;;;;10.30;2.70;;;19.70;99.90;;;;;;5087847;28;20035;-78
2021/06/16 07:43:00;;;;;;;9.32;2.67;;;19.70;99.90;;;;;;5089842;28;20077;-77
2021/06/16 07:45:25;;;;;;;15.35;3.58;;;19.90;99.90;;;;;;5092281;28;20028;-78
2021/06/16 07:47:51;;;;;;;16.25;3.30;;;19.80;99.90;;;;;;5092390;28;20054;-78
2021/06/16 07:50:17;;;;;;;8.93;2.83;;;19.80;99.90;;;;;;5092334;28;20031;-77
2021/06/16 07:52:42;;;;;;;11.38;2.47;;;20.00;99.90;;;;;;5087234;28;20654;-78
2021/06/16 07:55:09;;;;;;;10.93;2.58;;;19.90;99.90;;;;;;5071965;28;20078;-78
2021/06/16 07:57:34;;;;;;;10.70;3.03;;;20.30;99.90;;;;;;5072197;28;20019;-79
2021/06/16 08:00:00;;;;;;;7.30;1.92;;;20.50;99.90;;;;;;5070704;28;20463;-78
2021/06/16 08:02:27;;;;;;;10.63;3.00;;;20.60;99.90;;;;;;5070778;28;20033;-78
2021/06/16 08:04:53;;;;;;;12.93;2.30;;;20.50;99.90;;;;;;5074006;28;20025;-78
2021/06/16 08:07:20;;;;;;;14.38;2.65;;;20.90;99.90;;;;;;5071898;28;20041;-79
2021/06/16 08:09:45;;;;;;;13.93;2.70;;;21.20;99.90;;;;;;5071736;28;20424;-78
2021/06/16 08:12:13;;;;;;;14.38;2.10;;;21.30;99.90;;;;;;5071950;28;20054;-79
2021/06/16 08:14:40;;;;;;;10.70;1.98;;;21.20;99.90;;;;;;5085640;28;20384;-79
2021/06/16 08:17:06;;;;;;;16.00;3.65;;;21.10;99.90;;;;;;5092101;28;20048;-79
2021/06/16 08:19:33;;;;;;;9.55;2.92;;;21.20;99.90;;;;;;5092035;28;20054;-80
2021/06/16 08:22:00;;;;;;;8.07;2.15;;;20.80;99.90;;;;;;5090687;28;20032;-79
2021/06/16 08:24:26;;;;;;;10.70;1.92;;;21.00;99.90;;;;;;5081207;28;20024;-79
2021/06/16 08:26:52;;;;;;;8.30;2.10;;;21.40;99.90;;;;;;5078566;28;20401;-79
2021/06/16 08:29:18;;;;;;;11.13;2.88;;;21.60;99.90;;;;;;5071677;28;20033;-79
2021/06/16 08:31:43;;;;;;;9.32;2.10;;;21.80;99.90;;;;;;5071681;28;20025;-79
2021/06/16 08:34:09;;;;;;;11.45;2.42;;;22.20;99.90;;;;;;5074950;28;20024;-79
2021/06/16 08:36:36;;;;;;;5.25;2.03;;;22.40;99.90;;;;;;5092128;28;20095;-79
2021/06/16 08:39:02;;;;;;;10.50;2.35;;;22.70;99.90;;;;;;5090552;28;20028;-79
2021/06/16 08:41:28;;;;;;;7.65;2.17;;;22.80;99.90;;;;;;5091626;28;20028;-79
2021/06/16 08:43:55;;;;;;;8.20;2.53;;;22.70;99.90;;;;;;5091235;28;20091;-78
2021/06/16 08:46:22;;;;;;;15.88;3.03;;;22.90;99.90;;;;;;5076364;28;20025;-79
2021/06/16 08:48:48;;;;;;;11.52;2.95;;;22.90;99.90;;;;;;5075676;28;20141;-78
2021/06/16 08:51:15;;;;;;;14.43;2.47;;;22.90;99.90;;;;;;5075278;28;20052;-78
2021/06/16 08:53:42;;;;;;;10.75;3.33;;;23.00;99.90;;;;;;5074155;28;20107;-78
2021/06/16 08:56:09;;;;;;;11.40;2.83;;;23.10;99.90;;;;;;5088463;28;20081;-78
2021/06/16 08:58:41;;;;;;;8.10;2.45;;;23.30;99.90;;;;;;5094271;28;20051;-78
2021/06/16 09:01:09;;;;;;;9.88;2.45;;;23.40;99.90;;;;;;5095579;28;20477;-78
2021/06/16 09:03:36;;;;;;;11.75;3.08;;;23.10;99.90;;;;;;5095622;28;20483;-78
2021/06/16 09:06:10;;;;;;;10.95;2.28;;;22.70;99.90;;;;;;5082473;28;20024;-78
2021/06/16 09:09:00;;;;;;;13.40;2.90;;;22.30;99.90;;;;;;5075182;28;20469;-78
2021/06/16 09:11:39;;;;;;;11.13;2.63;;;22.20;99.90;;;;;;5074955;28;20115;-78
2021/06/16 09:14:20;;;;;;;8.27;2.55;;;22.10;99.90;;;;;;5073633;28;20016;-78
2021/06/16 09:16:47;;;;;;;21.23;2.40;;;22.30;99.90;;;;;;5078442;28;20028;-77
2021/06/16 09:19:30;;;;;;;11.45;2.45;;;22.60;99.90;;;;;;5090100;28;20091;-77
2021/06/16 09:22:06;;;;;;;12.85;2.60;;;22.90;99.90;;;;;;5083492;28;20392;-77
2021/06/16 09:24:52;;;;;;;11.77;3.15;;;22.90;99.90;;;;;;5092910;28;20032;-77
2021/06/16 09:27:50;;;;;;;9.80;2.17;;;23.10;99.90;;;;;;5094453;28;20580;-78
2021/06/16 09:30:18;;;;;;;16.00;2.60;;;23.60;99.90;;;;;;5093653;28;20032;-77
2021/06/16 09:32:45;;;;;;;12.63;3.05;;;23.90;99.90;;;;;;5095043;28;20085;-77
2021/06/16 09:35:22;;;;;;;10.77;2.40;;;24.40;99.90;;;;;;5094687;28;20097;-77
2021/06/16 09:37:48;;;;;;;12.95;2.67;;;24.60;99.90;;;;;;5078084;28;20048;-78
2021/06/16 09:40:16;;;;;;;12.10;2.40;;;24.50;99.90;;;;;;5074421;28;20035;-78
2021/06/16 09:42:41;;;;;;;11.52;2.72;;;24.30;99.90;;;;;;5074876;28;20101;-77
2021/06/16 09:45:07;;;;;;;11.80;2.35;;;24.20;99.90;;;;;;5074308;28;20086;-77
2021/06/16 09:47:33;;;;;;;6.55;2.30;;;24.30;99.90;;;;;;5084743;28;20129;-77
2021/06/16 09:50:01;;;;;;;6.95;2.17;;;24.40;99.90;;;;;;5082044;28;20043;-78
2021/06/16 09:52:31;;;;;;;9.82;2.80;;;24.50;99.90;;;;;;5093364;28;20411;-78
2021/06/16 09:55:06;;;;;;;11.15;2.38;;;24.80;99.90;;;;;;5092744;28;20031;-78
2021/06/16 09:57:32;;;;;;;10.57;2.42;;;25.20;99.90;;;;;;5088145;28;20020;-79
2021/06/16 10:00:08;;;;;;;5.10;1.48;;;25.10;99.90;;;;;;5088126;28;20052;-79
2021/06/16 10:02:34;;;;;;;9.35;2.92;;;24.70;97.30;;;;;;5089010;28;20032;-79
2021/06/16 10:05:02;;;;;;;11.20;2.30;;;24.80;99.80;;;;;;5087635;28;20402;-79
2021/06/16 10:07:33;;;;;;;9.85;2.10;;;25.00;99.90;;;;;;5089500;28;20032;-79
2021/06/16 10:10:11;;;;;;;5.80;2.22;;;25.40;99.90;;;;;;5088853;28;20028;-78
2021/06/16 10:12:42;;;;;;;6.18;1.80;;;25.80;99.90;;;;;;5088338;28;20114;-78
2021/06/16 10:15:12;;;;;;;9.40;2.10;;;25.80;99.90;;;;;;5087914;28;20066;-78
2021/06/16 10:17:38;;;;;;;6.53;2.15;;;26.20;99.90;;;;;;5087938;28;20031;-78
2021/06/16 10:20:06;;;;;;;12.85;2.17;;;26.30;99.90;;;;;;5089689;28;20392;-78
2021/06/16 10:22:32;;;;;;;7.55;2.00;;;26.30;99.90;;;;;;5089582;28;20597;-79
2021/06/16 10:24:57;;;;;;;11.52;2.22;;;26.50;99.90;;;;;;5087343;28;20119;-79
2021/06/16 10:27:35;;;;;;;17.00;3.10;;;26.50;99.90;;;;;;5089468;28;20031;-79
2021/06/16 10:30:02;;;;;;;6.50;2.40;;;26.70;99.90;;;;;;5087040;28;20028;-79
2021/06/16 10:32:36;;;;;;;10.50;2.45;;;26.40;99.90;;;;;;5087377;28;20120;-78
2021/06/16 10:35:03;;;;;;;12.38;2.58;;;26.60;99.90;;;;;;5088727;28;20023;-79
2021/06/16 10:37:31;;;;;;;5.75;2.08;;;26.30;98.60;;;;;;5089188;28;20036;-79
2021/06/16 10:40:19;;;;;;;9.35;2.58;;;26.10;96.60;;;;;;5089100;28;20528;-78
2021/06/16 10:43:03;;;;;;;15.60;2.83;;;25.80;94.50;;;;;;5092443;28;20024;-79
2021/06/16 10:45:29;;;;;;;6.57;1.65;;;25.70;95.70;;;;;;5073106;28;20480;-79
2021/06/16 10:48:00;;;;;;;7.90;2.75;;;25.90;99.90;;;;;;5071924;28;20029;-79
2021/06/16 10:50:53;;;;;;;8.95;1.98;;;26.20;95.10;;;;;;5091248;28;20031;-79
2021/06/16 10:53:21;;;;;;;10.52;2.30;;;26.70;99.20;;;;;;5093452;28;20024;-80
2021/06/16 10:55:56;;;;;;;4.82;1.77;;;26.80;92.20;;;;;;5093120;28;20028;-78
2021/06/16 10:58:25;;;;;;;10.65;1.90;;;26.90;95.30;;;;;;5093274;28;20538;-78
2021/06/16 11:01:11;;;;;;;5.38;1.80;;;27.40;91.60;;;;;;5080775;28;20032;-79
2021/06/16 11:03:46;;;;;;;7.50;2.05;;;27.50;94.80;;;;;;5075064;28;20032;-77
2021/06/16 11:06:31;;;;;;;9.02;2.05;;;27.60;94.10;;;;;;5072584;28;20021;-78
2021/06/16 11:08:57;;;;;;;7.93;2.40;;;27.30;91.10;;;;;;5068848;28;20044;-81
2021/06/16 11:11:24;;;;;;;9.85;2.20;;;27.20;84.10;;;;;;5092267;28;20028;-78
2021/06/16 11:13:50;;;;;;;7.03;1.65;;;27.10;83.70;;;;;;5092805;28;20508;-78
2021/06/16 11:16:41;;;;;;;14.77;2.25;;;27.30;85.90;;;;;;5092816;28;20031;-78
2021/06/16 11:19:26;;;;;;;12.80;2.33;;;27.70;91.70;;;;;;5093188;28;20021;-78
2021/06/16 11:21:54;;;;;;;10.45;1.83;;;27.60;83.00;;;;;;5071812;28;20044;-78
2021/06/16 11:24:20;;;;;;;6.78;2.08;;;27.60;79.20;;;;;;5088209;28;20024;-78
2021/06/16 11:26:47;;;;;;;10.50;2.60;;;28.10;89.20;;;;;;5088092;28;20020;-78
2021/06/16 11:29:50;;;;;;;7.85;1.75;;;27.50;76.30;;;;;;5088324;28;20028;-78
2021/06/16 11:32:16;;;;;;;6.75;2.15;;;27.40;75.50;;;;;;5088523;28;20032;-79
2021/06/16 11:34:53;;;;;;;17.40;2.50;;;27.80;88.70;;;;;;5092467;28;20024;-78
2021/06/16 11:37:56;;;;;;;4.55;1.40;;;28.30;83.60;;;;;;5092569;28;20059;-77
2021/06/16 11:40:23;;;;;;;8.93;1.70;;;28.70;85.10;;;;;;5091833;28;20543;-77
2021/06/16 11:42:48;;;;;;;7.93;1.63;;;28.70;70.00;;;;;;5092506;28;20032;-77
2021/06/16 11:45:14;;;;;;;6.38;2.08;;;28.70;72.10;;;;;;5092275;28;20412;-78
2021/06/16 11:47:40;;;;;;;12.15;2.40;;;28.30;69.50;;;;;;5092374;28;20047;-77
2021/06/16 11:50:09;;;;;;;5.18;1.45;;;28.40;85.40;;;;;;5092239;28;20035;-77
2021/06/16 11:52:34;;;;;;;10.30;2.38;;;28.80;72.90;;;;;;5074520;28;20481;-78
2021/06/16 11:55:00;;;;;;;9.13;1.52;;;29.00;78.20;;;;;;5071961;28;20111;-78
2021/06/16 11:57:27;;;;;;;4.40;1.63;;;29.00;74.10;;;;;;5072117;28;20024;-78
2021/06/16 11:59:53;;;;;;;9.00;2.17;;;29.50;80.50;;;;;;5071890;28;20016;-77
2021/06/16 12:02:24;;;;;;;8.77;1.90;;;29.70;71.40;;;;;;5084134;28;20032;-78
2021/06/16 12:05:03;;;;;;;6.07;1.58;;;29.70;79.00;;;;;;5074527;28;20024;-78
2021/06/16 12:07:30;;;;;;;10.13;1.77;;;29.60;72.80;;;;;;5071966;28;20024;-77
2021/06/16 12:10:07;;;;;;;4.90;1.50;;;29.60;68.80;;;;;;5070369;28;20562;-77
2021/06/16 12:13:07;;;;;;;9.23;1.77;;;29.70;75.20;;;;;;5082926;28;20028;-77
2021/06/16 12:15:35;;;;;;;5.75;1.98;;;29.30;60.90;;;;;;5088096;28;20028;-78
2021/06/16 12:18:12;;;;;;;7.43;2.42;;;29.00;65.00;;;;;;5090625;28;20027;-77
2021/06/16 12:20:43;;;;;;;7.15;2.05;;;28.90;64.40;;;;;;5090513;28;20067;-77
2021/06/16 12:23:31;;;;;;;3.78;1.48;;;29.30;70.00;;;;;;5075643;28;20040;-77
2021/06/16 12:26:06;;;;;;;7.40;1.55;;;30.20;69.70;;;;;;5086923;28;20073;-78
2021/06/16 12:28:34;;;;;;;9.23;1.83;;;30.60;65.60;;;;;;5087535;28;20030;-78
2021/06/16 12:31:01;;;;;;;12.20;1.85;;;31.20;64.40;;;;;;5087417;28;20036;-78
2021/06/16 12:34:02;;;;;;;4.28;1.45;;;31.60;63.40;;;;;;5083238;28;20020;-77
2021/06/16 12:36:30;;;;;;;3.92;1.52;;;31.70;54.80;;;;;;5071686;28;20048;-79
2021/06/16 12:39:18;;;;;;;6.63;2.00;;;31.40;58.00;;;;;;5071672;28;20419;-78
2021/06/16 12:41:51;;;;;;;8.18;1.75;;;31.30;58.00;;;;;;5071569;28;20500;-78
2021/06/16 12:44:24;;;;;;;9.50;2.28;;;31.80;59.60;;;;;;5087287;28;20106;-79
2021/06/16 12:46:57;;;;;;;7.75;1.75;;;32.10;63.20;;;;;;5091842;28;20047;-79
2021/06/16 12:49:25;;;;;;;6.30;1.80;;;31.70;52.00;;;;;;5091845;28;20020;-79
2021/06/16 12:52:04;;;;;;;8.88;1.75;;;31.70;56.10;;;;;;5088978;28;20032;-79